sensor_id;sensor_type;location;lat;lon;timestamp;P1;durP1;ratioP1;P2;durP2;ratioP2
789;SDS011;378;48.844;9.156;2022-09-09T00:00:24;7.25;;;1.70;;
789;SDS011;378;48.844;9.156;2022-09-09T00:02:54;5.15;;;1.33;;
789;SDS011;378;48.844;9.156;2022-09-09T00:05:33;4.32;;;1.60;;
789;SDS011;378;48.844;9.156;2022-09-09T00:08:07;8.90;;;1.40;;
789;SDS011;378;48.844;9.156;2022-09-09T00:10:43;5.25;;;1.40;;
789;SDS011;378;48.844;9.156;2022-09-09T00:13:13;7.28;;;1.40;;
789;SDS011;378;48.844;9.156;2022-09-09T00:15:46;4.13;;;1.52;;
789;SDS011;378;48.844;9.156;2022-09-09T00:18:22;3.22;;;1.27;;
789;SDS011;378;48.844;9.156;2022-09-09T00:20:55;5.70;;;1.05;;
789;SDS011;378;48.844;9.156;2022-09-09T00:23:32;2.92;;;1.00;;
789;SDS011;378;48.844;9.156;2022-09-09T00:26:03;6.13;;;1.10;;
789;SDS011;378;48.844;9.156;2022-09-09T00:28:36;2.92;;;0.90;;
789;SDS011;378;48.844;9.156;2022-09-09T00:31:10;3.15;;;1.20;;
789;SDS011;378;48.844;9.156;2022-09-09T00:33:39;3.58;;;0.90;;
789;SDS011;378;48.844;9.156;2022-09-09T00:36:09;3.65;;;0.88;;
789;SDS011;378;48.844;9.156;2022-09-09T00:38:44;5.30;;;1.10;;
789;SDS011;378;48.844;9.156;2022-09-09T00:41:15;2.70;;;1.02;;
789;SDS011;378;48.844;9.156;2022-09-09T00:43:50;2.90;;;1.00;;
789;SDS011;378;48.844;9.156;2022-09-09T00:46:34;2.83;;;0.90;;
789;SDS011;378;48.844;9.156;2022-09-09T00:49:39;3.80;;;0.90;;
789;SDS011;378;48.844;9.156;2022-09-09T00:52:19;3.45;;;1.15;;
789;SDS011;378;48.844;9.156;2022-09-09T00:54:57;3.35;;;1.00;;
789;SDS011;378;48.844;9.156;2022-09-09T00:57:31;4.72;;;1.00;;
789;SDS011;378;48.844;9.156;2022-09-09T01:00:01;1.75;;;0.88;;
789;SDS011;378;48.844;9.156;2022-09-09T01:02:46;2.88;;;0.98;;
789;SDS011;378;48.844;9.156;2022-09-09T01:05:19;4.72;;;0.80;;
789;SDS011;378;48.844;9.156;2022-09-09T01:07:50;4.70;;;1.20;;
789;SDS011;378;48.844;9.156;2022-09-09T01:10:21;2.63;;;0.80;;
789;SDS011;378;48.844;9.156;2022-09-09T01:12:56;2.53;;;1.02;;
789;SDS011;378;48.844;9.156;2022-09-09T01:15:27;2.45;;;0.82;;
789;SDS011;378;48.844;9.156;2022-09-09T01:17:58;5.15;;;1.13;;
789;SDS011;378;48.844;9.156;2022-09-09T01:20:29;2.40;;;0.90;;
789;SDS011;378;48.844;9.156;2022-09-09T01:23:19;4.03;;;1.20;;
789;SDS011;378;48.844;9.156;2022-09-09T01:26:17;2.28;;;0.93;;
789;SDS011;378;48.844;9.156;2022-09-09T01:28:48;3.40;;;1.17;;
789;SDS011;378;48.844;9.156;2022-09-09T01:31:18;6.28;;;0.98;;
789;SDS011;378;48.844;9.156;2022-09-09T01:33:47;3.53;;;0.90;;
789;SDS011;378;48.844;9.156;2022-09-09T01:36:17;3.92;;;1.00;;
789;SDS011;378;48.844;9.156;2022-09-09T01:38:51;4.22;;;1.20;;
789;SDS011;378;48.844;9.156;2022-09-09T01:41:19;5.68;;;1.13;;
789;SDS011;378;48.844;9.156;2022-09-09T01:43:47;4.22;;;1.00;;
789;SDS011;378;48.844;9.156;2022-09-09T01:46:14;5.70;;;0.90;;
789;SDS011;378;48.844;9.156;2022-09-09T01:48:41;3.72;;;1.00;;
789;SDS011;378;48.844;9.156;2022-09-09T01:51:09;3.78;;;1.00;;
789;SDS011;378;48.844;9.156;2022-09-09T01:53:36;4.25;;;0.90;;
789;SDS011;378;48.844;9.156;2022-09-09T01:56:07;6.45;;;1.23;;
789;SDS011;378;48.844;9.156;2022-09-09T01:58:47;4.88;;;1.58;;
789;SDS011;378;48.844;9.156;2022-09-09T02:01:27;3.83;;;1.20;;
789;SDS011;378;48.844;9.156;2022-09-09T02:04:08;2.97;;;0.93;;
789;SDS011;378;48.844;9.156;2022-09-09T02:06:47;3.85;;;0.93;;
789;SDS011;378;48.844;9.156;2022-09-09T02:09:16;3.28;;;0.90;;
789;SDS011;378;48.844;9.156;2022-09-09T02:11:49;3.63;;;1.00;;
789;SDS011;378;48.844;9.156;2022-09-09T02:14:23;2.72;;;0.80;;
789;SDS011;378;48.844;9.156;2022-09-09T02:16:54;5.97;;;0.82;;
789;SDS011;378;48.844;9.156;2022-09-09T02:19:25;2.75;;;0.90;;
789;SDS011;378;48.844;9.156;2022-09-09T02:21:56;5.55;;;1.00;;
789;SDS011;378;48.844;9.156;2022-09-09T02:24:26;5.22;;;1.10;;
789;SDS011;378;48.844;9.156;2022-09-09T02:26:55;3.80;;;0.70;;
789;SDS011;378;48.844;9.156;2022-09-09T02:29:26;2.17;;;0.80;;
789;SDS011;378;48.844;9.156;2022-09-09T02:31:56;3.53;;;1.05;;
789;SDS011;378;48.844;9.156;2022-09-09T02:34:28;4.57;;;1.10;;
789;SDS011;378;48.844;9.156;2022-09-09T02:39:34;2.70;;;0.88;;
789;SDS011;378;48.844;9.156;2022-09-09T02:42:01;2.42;;;1.00;;
789;SDS011;378;48.844;9.156;2022-09-09T02:44:30;1.63;;;0.75;;
789;SDS011;378;48.844;9.156;2022-09-09T02:47:05;5.13;;;0.95;;
789;SDS011;378;48.844;9.156;2022-09-09T02:49:43;2.50;;;0.85;;
789;SDS011;378;48.844;9.156;2022-09-09T02:52:21;3.20;;;1.00;;
789;SDS011;378;48.844;9.156;2022-09-09T02:54:55;7.38;;;0.90;;
789;SDS011;378;48.844;9.156;2022-09-09T02:57:29;2.17;;;0.80;;
789;SDS011;378;48.844;9.156;2022-09-09T02:59:59;2.53;;;0.70;;
789;SDS011;378;48.844;9.156;2022-09-09T03:02:26;4.82;;;0.93;;
789;SDS011;378;48.844;9.156;2022-09-09T03:04:53;5.13;;;1.02;;
789;SDS011;378;48.844;9.156;2022-09-09T03:07:20;2.92;;;0.70;;
789;SDS011;378;48.844;9.156;2022-09-09T03:09:47;6.05;;;0.70;;
789;SDS011;378;48.844;9.156;2022-09-09T03:12:14;2.05;;;0.98;;
789;SDS011;378;48.844;9.156;2022-09-09T03:14:41;5.88;;;0.82;;
789;SDS011;378;48.844;9.156;2022-09-09T03:17:11;1.08;;;0.77;;
789;SDS011;378;48.844;9.156;2022-09-09T03:19:38;2.20;;;0.88;;
789;SDS011;378;48.844;9.156;2022-09-09T03:22:06;0.82;;;0.60;;
789;SDS011;378;48.844;9.156;2022-09-09T03:24:34;5.50;;;1.15;;
789;SDS011;378;48.844;9.156;2022-09-09T03:27:01;7.38;;;0.80;;
789;SDS011;378;48.844;9.156;2022-09-09T03:29:28;7.15;;;0.90;;
789;SDS011;378;48.844;9.156;2022-09-09T03:31:55;4.72;;;0.80;;
789;SDS011;378;48.844;9.156;2022-09-09T03:34:23;1.92;;;0.60;;
789;SDS011;378;48.844;9.156;2022-09-09T03:36:50;2.72;;;0.73;;
789;SDS011;378;48.844;9.156;2022-09-09T03:39:17;2.92;;;0.70;;
789;SDS011;378;48.844;9.156;2022-09-09T03:41:43;3.20;;;0.80;;
789;SDS011;378;48.844;9.156;2022-09-09T03:44:12;3.97;;;0.80;;
789;SDS011;378;48.844;9.156;2022-09-09T03:46:39;1.20;;;0.70;;
789;SDS011;378;48.844;9.156;2022-09-09T03:49:06;2.60;;;0.93;;
789;SDS011;378;48.844;9.156;2022-09-09T03:51:36;3.05;;;0.90;;
789;SDS011;378;48.844;9.156;2022-09-09T03:54:03;2.83;;;0.63;;
789;SDS011;378;48.844;9.156;2022-09-09T03:56:33;2.40;;;0.65;;
789;SDS011;378;48.844;9.156;2022-09-09T03:59:00;3.70;;;0.88;;
789;SDS011;378;48.844;9.156;2022-09-09T04:01:26;0.47;;;0.40;;
789;SDS011;378;48.844;9.156;2022-09-09T04:03:54;4.07;;;0.80;;
789;SDS011;378;48.844;9.156;2022-09-09T04:06:23;5.30;;;0.82;;
789;SDS011;378;48.844;9.156;2022-09-09T04:08:52;3.30;;;0.77;;
789;SDS011;378;48.844;9.156;2022-09-09T04:11:20;3.50;;;0.63;;
789;SDS011;378;48.844;9.156;2022-09-09T04:13:47;1.58;;;0.60;;
789;SDS011;378;48.844;9.156;2022-09-09T04:16:14;4.15;;;0.75;;
789;SDS011;378;48.844;9.156;2022-09-09T04:18:41;1.45;;;0.70;;
789;SDS011;378;48.844;9.156;2022-09-09T04:21:08;2.55;;;0.65;;
789;SDS011;378;48.844;9.156;2022-09-09T04:23:37;1.83;;;0.70;;
789;SDS011;378;48.844;9.156;2022-09-09T04:26:06;1.65;;;0.50;;
789;SDS011;378;48.844;9.156;2022-09-09T04:28:34;2.10;;;0.60;;
789;SDS011;378;48.844;9.156;2022-09-09T04:31:05;3.10;;;0.70;;
789;SDS011;378;48.844;9.156;2022-09-09T04:33:34;4.78;;;0.70;;
789;SDS011;378;48.844;9.156;2022-09-09T04:36:01;2.67;;;0.65;;
789;SDS011;378;48.844;9.156;2022-09-09T04:38:28;3.10;;;0.80;;
789;SDS011;378;48.844;9.156;2022-09-09T04:40:55;3.80;;;1.00;;
789;SDS011;378;48.844;9.156;2022-09-09T04:43:23;3.80;;;1.05;;
789;SDS011;378;48.844;9.156;2022-09-09T04:45:53;3.78;;;0.95;;
789;SDS011;378;48.844;9.156;2022-09-09T04:48:20;3.85;;;1.00;;
789;SDS011;378;48.844;9.156;2022-09-09T04:50:54;3.38;;;1.02;;
789;SDS011;378;48.844;9.156;2022-09-09T04:53:21;2.70;;;0.95;;
789;SDS011;378;48.844;9.156;2022-09-09T04:55:48;2.08;;;1.00;;
789;SDS011;378;48.844;9.156;2022-09-09T04:58:15;3.70;;;1.10;;
789;SDS011;378;48.844;9.156;2022-09-09T05:00:44;4.30;;;1.10;;
789;SDS011;378;48.844;9.156;2022-09-09T05:03:11;5.07;;;1.30;;
789;SDS011;378;48.844;9.156;2022-09-09T05:05:38;3.70;;;1.33;;
789;SDS011;378;48.844;9.156;2022-09-09T05:08:06;4.38;;;1.20;;
789;SDS011;378;48.844;9.156;2022-09-09T05:10:34;2.85;;;1.02;;
789;SDS011;378;48.844;9.156;2022-09-09T05:13:03;4.18;;;1.00;;
789;SDS011;378;48.844;9.156;2022-09-09T05:15:31;5.20;;;1.02;;
789;SDS011;378;48.844;9.156;2022-09-09T05:18:00;2.50;;;1.00;;
789;SDS011;378;48.844;9.156;2022-09-09T05:20:27;1.55;;;1.00;;
789;SDS011;378;48.844;9.156;2022-09-09T05:22:54;2.25;;;1.20;;
789;SDS011;378;48.844;9.156;2022-09-09T05:25:22;4.07;;;1.20;;
789;SDS011;378;48.844;9.156;2022-09-09T05:27:50;2.95;;;1.00;;
789;SDS011;378;48.844;9.156;2022-09-09T05:30:18;2.60;;;0.90;;
789;SDS011;378;48.844;9.156;2022-09-09T05:32:45;4.00;;;0.90;;
789;SDS011;378;48.844;9.156;2022-09-09T05:35:15;5.68;;;1.10;;
789;SDS011;378;48.844;9.156;2022-09-09T05:37:44;4.72;;;1.20;;
789;SDS011;378;48.844;9.156;2022-09-09T05:40:11;4.45;;;1.25;;
789;SDS011;378;48.844;9.156;2022-09-09T05:42:38;5.68;;;1.38;;
789;SDS011;378;48.844;9.156;2022-09-09T05:45:05;5.18;;;1.20;;
789;SDS011;378;48.844;9.156;2022-09-09T05:47:33;4.28;;;0.90;;
789;SDS011;378;48.844;9.156;2022-09-09T05:50:00;3.28;;;1.00;;
789;SDS011;378;48.844;9.156;2022-09-09T05:52:28;4.28;;;0.90;;
789;SDS011;378;48.844;9.156;2022-09-09T05:54:55;1.25;;;0.68;;
789;SDS011;378;48.844;9.156;2022-09-09T05:57:22;3.45;;;0.77;;
789;SDS011;378;48.844;9.156;2022-09-09T05:59:50;2.30;;;0.80;;
789;SDS011;378;48.844;9.156;2022-09-09T06:02:17;5.60;;;1.13;;
789;SDS011;378;48.844;9.156;2022-09-09T06:04:43;6.97;;;0.80;;
789;SDS011;378;48.844;9.156;2022-09-09T06:07:10;6.88;;;0.80;;
789;SDS011;378;48.844;9.156;2022-09-09T06:09:40;0.98;;;0.68;;
789;SDS011;378;48.844;9.156;2022-09-09T06:12:07;6.30;;;0.85;;
789;SDS011;378;48.844;9.156;2022-09-09T06:14:34;1.67;;;0.68;;
789;SDS011;378;48.844;9.156;2022-09-09T06:17:01;5.30;;;0.80;;
789;SDS011;378;48.844;9.156;2022-09-09T06:19:28;3.00;;;0.80;;
789;SDS011;378;48.844;9.156;2022-09-09T06:21:55;4.03;;;1.00;;
789;SDS011;378;48.844;9.156;2022-09-09T06:24:22;2.30;;;0.77;;
789;SDS011;378;48.844;9.156;2022-09-09T06:26:50;4.57;;;0.98;;
789;SDS011;378;48.844;9.156;2022-09-09T06:29:17;3.92;;;0.90;;
789;SDS011;378;48.844;9.156;2022-09-09T06:31:44;3.63;;;1.15;;
789;SDS011;378;48.844;9.156;2022-09-09T06:34:12;5.80;;;0.95;;
789;SDS011;378;48.844;9.156;2022-09-09T06:36:39;2.75;;;0.63;;
789;SDS011;378;48.844;9.156;2022-09-09T06:39:06;1.42;;;0.70;;
789;SDS011;378;48.844;9.156;2022-09-09T06:41:33;5.85;;;1.10;;
789;SDS011;378;48.844;9.156;2022-09-09T06:44:02;3.13;;;0.75;;
789;SDS011;378;48.844;9.156;2022-09-09T06:46:30;6.13;;;1.30;;
789;SDS011;378;48.844;9.156;2022-09-09T06:48:58;2.30;;;0.90;;
789;SDS011;378;48.844;9.156;2022-09-09T06:51:26;2.92;;;0.95;;
789;SDS011;378;48.844;9.156;2022-09-09T06:53:54;3.90;;;0.95;;
789;SDS011;378;48.844;9.156;2022-09-09T06:56:23;6.80;;;0.73;;
789;SDS011;378;48.844;9.156;2022-09-09T06:58:53;2.00;;;0.70;;
789;SDS011;378;48.844;9.156;2022-09-09T07:01:22;1.67;;;0.80;;
789;SDS011;378;48.844;9.156;2022-09-09T07:03:51;2.42;;;0.93;;
789;SDS011;378;48.844;9.156;2022-09-09T07:06:20;2.28;;;0.90;;
789;SDS011;378;48.844;9.156;2022-09-09T07:08:49;1.67;;;0.65;;
789;SDS011;378;48.844;9.156;2022-09-09T07:11:16;4.50;;;1.05;;
789;SDS011;378;48.844;9.156;2022-09-09T07:13:44;5.53;;;0.90;;
789;SDS011;378;48.844;9.156;2022-09-09T07:16:12;3.15;;;1.02;;
789;SDS011;378;48.844;9.156;2022-09-09T07:18:41;1.88;;;0.70;;
789;SDS011;378;48.844;9.156;2022-09-09T07:21:09;3.13;;;0.90;;
789;SDS011;378;48.844;9.156;2022-09-09T07:23:37;2.35;;;0.80;;
789;SDS011;378;48.844;9.156;2022-09-09T07:26:07;5.40;;;1.10;;
789;SDS011;378;48.844;9.156;2022-09-09T07:28:35;1.75;;;0.82;;
789;SDS011;378;48.844;9.156;2022-09-09T07:31:03;4.55;;;1.00;;
789;SDS011;378;48.844;9.156;2022-09-09T07:33:31;4.55;;;1.30;;
789;SDS011;378;48.844;9.156;2022-09-09T07:36:03;1.95;;;0.73;;
789;SDS011;378;48.844;9.156;2022-09-09T07:38:32;2.20;;;0.80;;
789;SDS011;378;48.844;9.156;2022-09-09T07:41:04;4.65;;;0.90;;
789;SDS011;378;48.844;9.156;2022-09-09T07:43:33;2.65;;;0.88;;
789;SDS011;378;48.844;9.156;2022-09-09T07:46:00;4.47;;;0.90;;
789;SDS011;378;48.844;9.156;2022-09-09T07:48:27;4.07;;;0.75;;
789;SDS011;378;48.844;9.156;2022-09-09T07:51:04;8.32;;;0.80;;
789;SDS011;378;48.844;9.156;2022-09-09T07:53:32;4.78;;;1.13;;
789;SDS011;378;48.844;9.156;2022-09-09T07:56:04;3.83;;;0.80;;
789;SDS011;378;48.844;9.156;2022-09-09T07:58:34;4.15;;;0.88;;
789;SDS011;378;48.844;9.156;2022-09-09T08:01:05;3.00;;;0.80;;
789;SDS011;378;48.844;9.156;2022-09-09T08:03:33;2.95;;;0.80;;
789;SDS011;378;48.844;9.156;2022-09-09T08:06:01;3.30;;;0.98;;
789;SDS011;378;48.844;9.156;2022-09-09T08:08:30;3.13;;;0.70;;
789;SDS011;378;48.844;9.156;2022-09-09T08:11:04;3.28;;;0.80;;
789;SDS011;378;48.844;9.156;2022-09-09T08:13:32;8.60;;;0.90;;
789;SDS011;378;48.844;9.156;2022-09-09T08:16:03;3.75;;;0.80;;
789;SDS011;378;48.844;9.156;2022-09-09T08:18:34;6.70;;;0.88;;
789;SDS011;378;48.844;9.156;2022-09-09T08:21:10;2.10;;;0.80;;
789;SDS011;378;48.844;9.156;2022-09-09T08:23:40;5.30;;;1.00;;
789;SDS011;378;48.844;9.156;2022-09-09T08:26:10;2.40;;;0.70;;
789;SDS011;378;48.844;9.156;2022-09-09T08:28:38;4.97;;;0.77;;
789;SDS011;378;48.844;9.156;2022-09-09T08:31:06;3.65;;;1.00;;
789;SDS011;378;48.844;9.156;2022-09-09T08:33:35;5.43;;;0.60;;
789;SDS011;378;48.844;9.156;2022-09-09T08:36:03;2.35;;;0.60;;
789;SDS011;378;48.844;9.156;2022-09-09T08:41:04;3.05;;;0.70;;
789;SDS011;378;48.844;9.156;2022-09-09T08:43:46;4.63;;;0.70;;
789;SDS011;378;48.844;9.156;2022-09-09T08:46:16;3.17;;;0.80;;
789;SDS011;378;48.844;9.156;2022-09-09T08:48:51;3.53;;;0.98;;
789;SDS011;378;48.844;9.156;2022-09-09T08:51:23;9.68;;;2.05;;
789;SDS011;378;48.844;9.156;2022-09-09T08:53:52;2.80;;;0.70;;
789;SDS011;378;48.844;9.156;2022-09-09T08:56:26;2.45;;;0.70;;
789;SDS011;378;48.844;9.156;2022-09-09T08:58:57;5.47;;;0.77;;
789;SDS011;378;48.844;9.156;2022-09-09T09:01:36;4.13;;;0.80;;
789;SDS011;378;48.844;9.156;2022-09-09T09:04:14;6.72;;;1.10;;
789;SDS011;378;48.844;9.156;2022-09-09T09:07:10;3.42;;;0.90;;
789;SDS011;378;48.844;9.156;2022-09-09T09:09:47;3.53;;;0.85;;
789;SDS011;378;48.844;9.156;2022-09-09T09:12:25;4.00;;;0.90;;
789;SDS011;378;48.844;9.156;2022-09-09T09:14:55;4.13;;;0.70;;
789;SDS011;378;48.844;9.156;2022-09-09T09:17:24;4.68;;;0.70;;
789;SDS011;378;48.844;9.156;2022-09-09T09:19:56;6.35;;;0.77;;
789;SDS011;378;48.844;9.156;2022-09-09T09:22:26;4.55;;;0.70;;
789;SDS011;378;48.844;9.156;2022-09-09T09:25:00;7.93;;;0.80;;
789;SDS011;378;48.844;9.156;2022-09-09T09:27:34;4.88;;;0.73;;
789;SDS011;378;48.844;9.156;2022-09-09T09:30:05;4.93;;;1.42;;
789;SDS011;378;48.844;9.156;2022-09-09T09:32:40;2.22;;;0.70;;
789;SDS011;378;48.844;9.156;2022-09-09T09:35:15;3.60;;;0.70;;
789;SDS011;378;48.844;9.156;2022-09-09T09:37:42;7.55;;;0.90;;
789;SDS011;378;48.844;9.156;2022-09-09T09:40:10;3.53;;;1.33;;
789;SDS011;378;48.844;9.156;2022-09-09T09:42:46;7.97;;;1.00;;
789;SDS011;378;48.844;9.156;2022-09-09T09:45:16;2.95;;;0.77;;
789;SDS011;378;48.844;9.156;2022-09-09T09:47:56;5.45;;;0.95;;
789;SDS011;378;48.844;9.156;2022-09-09T09:50:24;5.15;;;0.90;;
789;SDS011;378;48.844;9.156;2022-09-09T09:52:55;5.80;;;0.73;;
789;SDS011;378;48.844;9.156;2022-09-09T09:55:23;4.80;;;0.75;;
789;SDS011;378;48.844;9.156;2022-09-09T09:57:53;2.15;;;0.68;;
789;SDS011;378;48.844;9.156;2022-09-09T10:00:26;1.40;;;0.60;;
789;SDS011;378;48.844;9.156;2022-09-09T10:02:53;1.17;;;0.50;;
789;SDS011;378;48.844;9.156;2022-09-09T10:05:21;3.03;;;0.60;;
789;SDS011;378;48.844;9.156;2022-09-09T10:08:00;2.63;;;0.60;;
789;SDS011;378;48.844;9.156;2022-09-09T10:10:31;2.13;;;0.60;;
789;SDS011;378;48.844;9.156;2022-09-09T10:13:11;2.03;;;0.50;;
789;SDS011;378;48.844;9.156;2022-09-09T10:15:46;4.35;;;0.80;;
789;SDS011;378;48.844;9.156;2022-09-09T10:21:17;2.38;;;0.50;;
789;SDS011;378;48.844;9.156;2022-09-09T10:24:04;2.53;;;0.57;;
789;SDS011;378;48.844;9.156;2022-09-09T10:26:48;2.65;;;0.57;;
789;SDS011;378;48.844;9.156;2022-09-09T10:29:30;3.22;;;0.85;;
789;SDS011;378;48.844;9.156;2022-09-09T10:32:12;3.78;;;0.70;;
789;SDS011;378;48.844;9.156;2022-09-09T10:34:56;3.97;;;1.10;;
789;SDS011;378;48.844;9.156;2022-09-09T10:37:34;3.25;;;0.80;;
789;SDS011;378;48.844;9.156;2022-09-09T10:40:15;2.92;;;0.60;;
789;SDS011;378;48.844;9.156;2022-09-09T10:42:56;2.58;;;0.68;;
789;SDS011;378;48.844;9.156;2022-09-09T10:45:34;4.70;;;0.68;;
789;SDS011;378;48.844;9.156;2022-09-09T10:48:13;1.38;;;0.50;;
789;SDS011;378;48.844;9.156;2022-09-09T10:50:57;2.38;;;0.60;;
789;SDS011;378;48.844;9.156;2022-09-09T10:53:40;4.40;;;0.70;;
789;SDS011;378;48.844;9.156;2022-09-09T10:56:15;2.25;;;0.77;;
789;SDS011;378;48.844;9.156;2022-09-09T10:58:44;3.03;;;0.70;;
789;SDS011;378;48.844;9.156;2022-09-09T11:01:18;9.30;;;0.60;;
789;SDS011;378;48.844;9.156;2022-09-09T11:03:49;2.85;;;0.73;;
789;SDS011;378;48.844;9.156;2022-09-09T11:06:21;3.70;;;0.80;;
789;SDS011;378;48.844;9.156;2022-09-09T11:08:54;3.50;;;0.90;;
789;SDS011;378;48.844;9.156;2022-09-09T11:11:25;4.88;;;0.80;;
789;SDS011;378;48.844;9.156;2022-09-09T11:13:55;3.80;;;0.88;;
789;SDS011;378;48.844;9.156;2022-09-09T11:16:29;3.75;;;0.73;;
789;SDS011;378;48.844;9.156;2022-09-09T11:19:01;10.27;;;0.85;;
789;SDS011;378;48.844;9.156;2022-09-09T11:21:36;9.73;;;1.08;;
789;SDS011;378;48.844;9.156;2022-09-09T11:24:09;6.13;;;1.00;;
789;SDS011;378;48.844;9.156;2022-09-09T11:26:41;10.82;;;1.38;;
789;SDS011;378;48.844;9.156;2022-09-09T11:29:21;6.40;;;1.00;;
789;SDS011;378;48.844;9.156;2022-09-09T11:32:12;4.78;;;0.93;;
789;SDS011;378;48.844;9.156;2022-09-09T11:34:53;4.97;;;1.10;;
789;SDS011;378;48.844;9.156;2022-09-09T11:37:41;2.55;;;0.70;;
789;SDS011;378;48.844;9.156;2022-09-09T11:40:28;3.90;;;0.70;;
789;SDS011;378;48.844;9.156;2022-09-09T11:43:03;5.68;;;0.60;;
789;SDS011;378;48.844;9.156;2022-09-09T11:45:35;1.02;;;0.30;;
789;SDS011;378;48.844;9.156;2022-09-09T11:48:04;0.95;;;0.70;;
789;SDS011;378;48.844;9.156;2022-09-09T11:50:33;2.42;;;0.63;;
789;SDS011;378;48.844;9.156;2022-09-09T11:53:19;2.35;;;0.50;;
789;SDS011;378;48.844;9.156;2022-09-09T11:55:47;1.55;;;0.47;;
789;SDS011;378;48.844;9.156;2022-09-09T11:58:27;1.10;;;0.43;;
789;SDS011;378;48.844;9.156;2022-09-09T12:00:57;2.78;;;0.45;;
789;SDS011;378;48.844;9.156;2022-09-09T12:03:34;0.45;;;0.40;;
789;SDS011;378;48.844;9.156;2022-09-09T12:06:11;1.05;;;0.40;;
789;SDS011;378;48.844;9.156;2022-09-09T12:08:43;2.45;;;0.35;;
789;SDS011;378;48.844;9.156;2022-09-09T12:11:22;1.00;;;0.30;;
789;SDS011;378;48.844;9.156;2022-09-09T12:13:52;1.52;;;0.45;;
789;SDS011;378;48.844;9.156;2022-09-09T12:16:28;1.38;;;0.32;;
789;SDS011;378;48.844;9.156;2022-09-09T12:19:05;1.40;;;0.45;;
789;SDS011;378;48.844;9.156;2022-09-09T12:21:41;1.02;;;0.40;;
789;SDS011;378;48.844;9.156;2022-09-09T12:24:16;1.80;;;0.50;;
789;SDS011;378;48.844;9.156;2022-09-09T12:26:51;1.80;;;0.40;;
789;SDS011;378;48.844;9.156;2022-09-09T12:29:23;3.20;;;0.40;;
789;SDS011;378;48.844;9.156;2022-09-09T12:31:56;0.73;;;0.30;;
789;SDS011;378;48.844;9.156;2022-09-09T12:34:33;2.70;;;0.70;;
789;SDS011;378;48.844;9.156;2022-09-09T12:37:05;2.00;;;0.47;;
789;SDS011;378;48.844;9.156;2022-09-09T12:39:44;0.85;;;0.40;;
789;SDS011;378;48.844;9.156;2022-09-09T12:42:16;2.35;;;0.70;;
789;SDS011;378;48.844;9.156;2022-09-09T12:44:51;1.23;;;0.45;;
789;SDS011;378;48.844;9.156;2022-09-09T12:47:19;1.48;;;0.50;;
789;SDS011;378;48.844;9.156;2022-09-09T12:49:49;0.80;;;0.30;;
789;SDS011;378;48.844;9.156;2022-09-09T12:52:18;0.30;;;0.30;;
789;SDS011;378;48.844;9.156;2022-09-09T12:54:51;1.90;;;0.30;;
789;SDS011;378;48.844;9.156;2022-09-09T12:57:19;1.70;;;0.35;;
789;SDS011;378;48.844;9.156;2022-09-09T12:59:50;2.25;;;0.80;;
789;SDS011;378;48.844;9.156;2022-09-09T13:02:19;3.35;;;0.40;;
789;SDS011;378;48.844;9.156;2022-09-09T13:04:48;0.40;;;0.30;;
789;SDS011;378;48.844;9.156;2022-09-09T13:07:16;1.45;;;0.40;;
789;SDS011;378;48.844;9.156;2022-09-09T13:09:44;3.22;;;0.50;;
789;SDS011;378;48.844;9.156;2022-09-09T13:12:13;3.15;;;0.52;;
789;SDS011;378;48.844;9.156;2022-09-09T13:14:43;2.80;;;0.32;;
789;SDS011;378;48.844;9.156;2022-09-09T13:17:17;2.22;;;0.63;;
789;SDS011;378;48.844;9.156;2022-09-09T13:19:46;1.45;;;0.45;;
789;SDS011;378;48.844;9.156;2022-09-09T13:22:20;2.55;;;0.57;;
789;SDS011;378;48.844;9.156;2022-09-09T13:24:59;3.53;;;0.65;;
789;SDS011;378;48.844;9.156;2022-09-09T13:27:29;2.10;;;0.35;;
789;SDS011;378;48.844;9.156;2022-09-09T13:29:59;2.88;;;0.40;;
789;SDS011;378;48.844;9.156;2022-09-09T13:32:27;0.73;;;0.30;;
789;SDS011;378;48.844;9.156;2022-09-09T13:34:58;2.78;;;0.68;;
789;SDS011;378;48.844;9.156;2022-09-09T13:37:29;1.92;;;0.40;;
789;SDS011;378;48.844;9.156;2022-09-09T13:40:00;1.20;;;0.50;;
789;SDS011;378;48.844;9.156;2022-09-09T13:42:28;1.23;;;0.30;;
789;SDS011;378;48.844;9.156;2022-09-09T13:44:58;4.13;;;0.50;;
789;SDS011;378;48.844;9.156;2022-09-09T13:47:30;2.45;;;0.40;;
789;SDS011;378;48.844;9.156;2022-09-09T13:50:15;1.45;;;0.35;;
789;SDS011;378;48.844;9.156;2022-09-09T13:52:45;1.38;;;0.40;;
789;SDS011;378;48.844;9.156;2022-09-09T13:55:14;2.67;;;0.52;;
789;SDS011;378;48.844;9.156;2022-09-09T13:57:49;2.05;;;0.38;;
789;SDS011;378;48.844;9.156;2022-09-09T14:00:17;1.55;;;0.52;;
789;SDS011;378;48.844;9.156;2022-09-09T14:02:45;1.55;;;0.40;;
789;SDS011;378;48.844;9.156;2022-09-09T14:05:14;1.13;;;0.20;;
789;SDS011;378;48.844;9.156;2022-09-09T14:07:41;1.23;;;0.40;;
789;SDS011;378;48.844;9.156;2022-09-09T14:10:09;1.30;;;0.20;;
789;SDS011;378;48.844;9.156;2022-09-09T14:12:36;3.55;;;0.55;;
789;SDS011;378;48.844;9.156;2022-09-09T14:15:04;1.55;;;0.32;;
789;SDS011;378;48.844;9.156;2022-09-09T14:17:32;1.77;;;0.45;;
789;SDS011;378;48.844;9.156;2022-09-09T14:20:00;4.82;;;0.50;;
789;SDS011;378;48.844;9.156;2022-09-09T14:22:29;4.72;;;0.50;;
789;SDS011;378;48.844;9.156;2022-09-09T14:24:56;1.45;;;0.32;;
789;SDS011;378;48.844;9.156;2022-09-09T14:27:23;2.28;;;0.32;;
789;SDS011;378;48.844;9.156;2022-09-09T14:29:51;3.03;;;0.30;;
789;SDS011;378;48.844;9.156;2022-09-09T14:32:18;1.77;;;0.40;;
789;SDS011;378;48.844;9.156;2022-09-09T14:34:46;16.88;;;1.50;;
789;SDS011;378;48.844;9.156;2022-09-09T14:37:14;0.80;;;0.45;;
789;SDS011;378;48.844;9.156;2022-09-09T14:39:43;0.80;;;0.40;;
789;SDS011;378;48.844;9.156;2022-09-09T14:42:12;0.77;;;0.45;;
789;SDS011;378;48.844;9.156;2022-09-09T14:44:48;0.82;;;0.20;;
789;SDS011;378;48.844;9.156;2022-09-09T14:47:15;0.55;;;0.40;;
789;SDS011;378;48.844;9.156;2022-09-09T14:50:03;1.38;;;0.40;;
789;SDS011;378;48.844;9.156;2022-09-09T14:52:34;2.25;;;0.40;;
789;SDS011;378;48.844;9.156;2022-09-09T14:55:07;4.28;;;0.50;;
789;SDS011;378;48.844;9.156;2022-09-09T14:57:34;1.55;;;0.40;;
789;SDS011;378;48.844;9.156;2022-09-09T15:00:02;3.00;;;0.30;;
789;SDS011;378;48.844;9.156;2022-09-09T15:02:31;3.47;;;0.40;;
789;SDS011;378;48.844;9.156;2022-09-09T15:05:01;1.52;;;0.40;;
789;SDS011;378;48.844;9.156;2022-09-09T15:07:36;1.38;;;0.50;;
789;SDS011;378;48.844;9.156;2022-09-09T15:10:09;2.55;;;0.50;;
789;SDS011;378;48.844;9.156;2022-09-09T15:13:04;0.65;;;0.20;;
789;SDS011;378;48.844;9.156;2022-09-09T15:16:09;0.77;;;0.30;;
789;SDS011;378;48.844;9.156;2022-09-09T15:18:57;1.35;;;0.40;;
789;SDS011;378;48.844;9.156;2022-09-09T15:21:26;1.10;;;0.35;;
789;SDS011;378;48.844;9.156;2022-09-09T15:23:56;2.30;;;0.35;;
789;SDS011;378;48.844;9.156;2022-09-09T15:26:27;2.53;;;0.60;;
789;SDS011;378;48.844;9.156;2022-09-09T15:28:55;1.45;;;0.32;;
789;SDS011;378;48.844;9.156;2022-09-09T15:31:25;0.93;;;0.50;;
789;SDS011;378;48.844;9.156;2022-09-09T15:34:02;2.67;;;0.50;;
789;SDS011;378;48.844;9.156;2022-09-09T15:36:39;2.40;;;0.43;;
789;SDS011;378;48.844;9.156;2022-09-09T15:39:08;2.50;;;0.60;;
789;SDS011;378;48.844;9.156;2022-09-09T15:41:39;2.00;;;0.43;;
789;SDS011;378;48.844;9.156;2022-09-09T15:44:06;0.93;;;0.30;;
789;SDS011;378;48.844;9.156;2022-09-09T15:46:37;1.42;;;0.40;;
789;SDS011;378;48.844;9.156;2022-09-09T15:49:14;1.20;;;0.50;;
789;SDS011;378;48.844;9.156;2022-09-09T15:51:43;2.10;;;0.40;;
789;SDS011;378;48.844;9.156;2022-09-09T15:54:12;2.50;;;0.50;;
789;SDS011;378;48.844;9.156;2022-09-09T15:56:43;2.50;;;0.40;;
789;SDS011;378;48.844;9.156;2022-09-09T15:59:11;2.25;;;0.50;;
789;SDS011;378;48.844;9.156;2022-09-09T16:01:39;1.33;;;0.45;;
789;SDS011;378;48.844;9.156;2022-09-09T16:04:07;1.63;;;0.57;;
789;SDS011;378;48.844;9.156;2022-09-09T16:06:34;1.52;;;0.43;;
789;SDS011;378;48.844;9.156;2022-09-09T16:09:02;2.63;;;0.50;;
789;SDS011;378;48.844;9.156;2022-09-09T16:11:31;3.25;;;0.70;;
789;SDS011;378;48.844;9.156;2022-09-09T16:14:04;3.08;;;0.55;;
789;SDS011;378;48.844;9.156;2022-09-09T16:16:31;2.58;;;0.50;;
789;SDS011;378;48.844;9.156;2022-09-09T16:19:00;2.33;;;0.82;;